Time;durP1;ratioP1;P1;durP2;ratioP2;P2;SDS_P1;SDS_P2;PMS_P1;PMS_P2;Temp;Humidity;BMP_temperature;BMP_pressure;BME280_temperature;BME280_humidity;BME280_pressure;Samples;Min_cycle;Max_cycle;Signal;HPM_P1;HPM_P2
2023/04/10 00:02:22;;;;;;;13.80;7.00;;;;;;;7.00;100.00;100245.31;5139914;27;20366;-59
2023/04/10 00:04:48;;;;;;;14.25;6.47;;;;;;;7.05;100.00;100252.53;5139385;28;20138;-59
2023/04/10 00:07:14;;;;;;;11.23;6.03;;;;;;;7.00;100.00;100252.69;5139872;27;20083;-62
2023/04/10 00:09:40;;;;;;;12.85;6.45;;;;;;;6.99;100.00;100259.25;5139294;28;20051;-59
2023/04/10 00:12:06;;;;;;;10.27;5.80;;;;;;;6.87;100.00;100261.78;5139496;28;20412;-58
2023/04/10 00:14:32;;;;;;;16.55;6.78;;;;;;;6.94;100.00;100271.09;5139662;28;20047;-55
2023/04/10 00:16:58;;;;;;;13.98;6.82;;;;;;;6.95;100.00;100275.41;5139481;28;20116;-58
2023/04/10 00:19:25;;;;;;;16.08;6.68;;;;;;;6.95;100.00;100278.16;5139523;28;20331;-60
2023/04/10 00:21:50;;;;;;;9.95;6.68;;;;;;;6.93;100.00;100283.13;5139157;28;20051;-61
2023/04/10 00:24:16;;;;;;;11.80;6.80;;;;;;;6.88;100.00;100272.34;5139527;28;20049;-62
2023/04/10 00:26:42;;;;;;;12.40;6.45;;;;;;;6.88;100.00;100288.69;5139376;28;20406;-62
2023/04/10 00:29:08;;;;;;;11.57;5.90;;;;;;;6.87;100.00;100289.81;5139411;28;20403;-60
2023/04/10 00:31:34;;;;;;;10.75;6.72;;;;;;;6.84;100.00;100290.44;5138981;27;20043;-60
2023/04/10 00:34:00;;;;;;;8.77;5.88;;;;;;;6.84;100.00;100287.72;5139378;28;20051;-60
2023/04/10 00:36:27;;;;;;;14.40;6.75;;;;;;;6.79;100.00;100293.28;5138938;28;20134;-58
2023/04/10 00:38:53;;;;;;;10.95;6.18;;;;;;;6.74;100.00;100290.72;5139401;27;20321;-62
2023/04/10 00:41:19;;;;;;;11.88;6.30;;;;;;;6.79;100.00;100293.28;5139099;28;20062;-63
2023/04/10 00:43:45;;;;;;;17.45;7.43;;;;;;;6.77;100.00;100281.91;5138834;27;20051;-61
2023/04/10 00:46:11;;;;;;;15.45;6.63;;;;;;;6.73;100.00;100281.72;5139104;28;20097;-56
2023/04/10 00:48:37;;;;;;;20.40;7.57;;;;;;;6.69;100.00;100291.63;5138746;28;20111;-59
2023/04/10 00:51:05;;;;;;;10.68;6.30;;;;;;;6.73;100.00;100292.63;5138936;27;20482;-57
2023/04/10 00:53:32;;;;;;;15.80;6.50;;;;;;;6.72;100.00;100292.94;5138856;28;20146;-58
2023/04/10 00:55:59;;;;;;;12.60;6.53;;;;;;;6.70;100.00;100292.47;5139128;27;20051;-61
2023/04/10 00:58:25;;;;;;;17.52;7.03;;;;;;;6.64;100.00;100286.31;5138552;28;20043;-58
2023/04/10 01:00:51;;;;;;;13.88;6.40;;;;;;;6.57;100.00;100289.47;5139241;28;20051;-59
2023/04/10 01:03:19;;;;;;;14.20;6.22;;;;;;;6.50;100.00;100289.13;5138515;28;20416;-58
2023/04/10 01:05:55;;;;;;;10.77;7.05;;;;;;;6.40;100.00;100291.25;5138802;27;20408;-60
2023/04/10 01:08:30;;;;;;;17.90;7.45;;;;;;;6.42;100.00;100295.28;5138674;27;20134;-57
2023/04/10 01:11:04;;;;;;;14.13;6.50;;;;;;;6.40;100.00;100305.72;5138302;28;20138;-62
2023/04/10 01:13:38;;;;;;;11.93;6.03;;;;;;;6.33;100.00;100300.69;5138680;28;20058;-62
2023/04/10 01:16:10;;;;;;;12.98;6.63;;;;;;;6.32;100.00;100300.97;5138458;28;20115;-62
2023/04/10 01:18:40;;;;;;;14.88;7.65;;;;;;;6.35;100.00;100320.22;5138675;28;20298;-63
2023/04/10 01:21:10;;;;;;;15.00;6.32;;;;;;;6.34;100.00;100302.28;5138322;28;20065;-59
2023/04/10 01:24:06;;;;;;;17.90;6.57;;;;;;;6.28;100.00;100300.78;5138659;28;20431;-63
2023/04/10 01:27:02;;;;;;;14.02;6.30;;;;;;;6.20;100.00;100303.44;5138126;28;20164;-59
2023/04/10 01:29:31;;;;;;;8.15;6.05;;;;;;;6.17;100.00;100307.59;5138077;28;20051;-59
2023/04/10 01:32:01;;;;;;;11.15;6.55;;;;;;;6.14;100.00;100324.56;5138186;27;20051;-61
2023/04/10 01:34:32;;;;;;;9.73;6.25;;;;;;;6.15;100.00;100323.44;5137999;28;20137;-63
2023/04/10 01:37:00;;;;;;;9.95;6.75;;;;;;;6.15;100.00;100330.81;5138385;27;20135;-59
2023/04/10 01:39:28;;;;;;;9.43;5.82;;;;;;;6.20;100.00;100326.06;5137964;28;20055;-63
2023/04/10 01:41:56;;;;;;;8.65;6.05;;;;;;;6.13;100.00;100329.19;5138356;28;20061;-63
2023/04/10 01:44:24;;;;;;;10.75;6.55;;;;;;;6.15;100.00;100325.34;5138086;27;20047;-55
2023/04/10 01:46:53;;;;;;;14.38;7.05;;;;;;;6.11;100.00;100320.53;5138064;28;20055;-58
2023/04/10 01:49:20;;;;;;;12.60;6.78;;;;;;;6.10;100.00;100324.38;5138106;28;20043;-56
2023/04/10 01:51:47;;;;;;;10.73;6.63;;;;;;;6.08;100.00;100315.69;5137654;28;20141;-61
2023/04/10 01:54:14;;;;;;;10.55;6.38;;;;;;;6.03;100.00;100321.25;5137308;27;20047;-62
2023/04/10 01:56:41;;;;;;;14.73;6.47;;;;;;;6.03;100.00;100318.53;5137693;28;20138;-58
2023/04/10 01:59:07;;;;;;;8.55;5.95;;;;;;;5.97;100.00;100322.47;5138259;28;20188;-63
2023/04/10 02:01:33;;;;;;;14.73;6.95;;;;;;;5.93;100.00;100326.94;5137786;28;20055;-57
2023/04/10 02:03:59;;;;;;;10.85;6.63;;;;;;;5.98;100.00;100326.81;5138010;28;20058;-56
2023/04/10 02:06:35;;;;;;;11.57;6.47;;;;;;;5.92;100.00;100330.72;5137454;28;20051;-60
2023/04/10 02:09:09;;;;;;;12.07;6.55;;;;;;;5.91;100.00;100334.56;5137927;27;20054;-61
2023/04/10 02:11:41;;;;;;;13.77;7.75;;;;;;;5.81;100.00;100341.00;5137653;28;20061;-63
2023/04/10 02:14:14;;;;;;;15.98;6.88;;;;;;;5.84;100.00;100336.88;5137538;28;20395;-59
2023/04/10 02:16:40;;;;;;;9.45;6.47;;;;;;;5.85;100.00;100342.00;5137614;28;20059;-60
2023/04/10 02:19:09;;;;;;;10.27;6.38;;;;;;;5.86;100.00;100335.47;5137538;27;20138;-59
2023/04/10 02:21:35;;;;;;;15.52;6.82;;;;;;;5.90;100.00;100339.19;5137575;28;20138;-57
2023/04/10 02:24:01;;;;;;;15.85;6.70;;;;;;;5.84;100.00;100345.03;5137607;28;20047;-59
2023/04/10 02:26:27;;;;;;;10.00;6.72;;;;;;;5.80;100.00;100338.59;5137877;27;20047;-61
2023/04/10 02:28:52;;;;;;;13.48;6.55;;;;;;;5.76;100.00;100329.41;5137164;28;20055;-62
2023/04/10 02:31:18;;;;;;;16.45;7.03;;;;;;;5.75;100.00;100338.69;5137635;27;20179;-62
2023/04/10 02:33:44;;;;;;;13.68;6.57;;;;;;;5.73;100.00;100343.63;5137108;27;20061;-59
2023/04/10 02:36:11;;;;;;;14.50;6.55;;;;;;;5.79;100.00;100345.13;5137412;27;20111;-59
2023/04/10 02:38:37;;;;;;;11.95;7.15;;;;;;;5.79;100.00;100347.84;5137420;28;20058;-57
2023/04/10 02:41:03;;;;;;;10.60;6.78;;;;;;;5.78;100.00;100347.06;5137247;28;20055;-59
2023/04/10 02:43:29;;;;;;;16.80;7.18;;;;;;;5.74;100.00;100350.69;5137383;28;20047;-57
2023/04/10 02:45:56;;;;;;;8.90;6.55;;;;;;;5.70;100.00;100353.22;5137135;28;20134;-57
2023/04/10 02:48:22;;;;;;;10.02;7.57;;;;;;;5.72;100.00;100350.97;5137369;28;20047;-58
2023/04/10 02:50:48;;;;;;;12.93;5.93;;;;;;;5.75;100.00;100352.31;5137072;28;20133;-57
2023/04/10 02:53:15;;;;;;;9.27;6.78;;;;;;;5.72;100.00;100350.97;5137565;27;20047;-56
2023/04/10 02:55:41;;;;;;;12.70;6.70;;;;;;;5.69;100.00;100346.16;5137413;28;20047;-57
2023/04/10 02:58:07;;;;;;;12.30;6.22;;;;;;;5.59;100.00;100346.34;5137346;28;20051;-59
2023/04/10 03:00:33;;;;;;;11.68;6.50;;;;;;;5.64;100.00;100347.06;5136814;27;20083;-62
2023/04/10 03:02:59;;;;;;;11.45;6.60;;;;;;;5.59;100.00;100352.59;5137217;27;20053;-59
2023/04/10 03:05:25;;;;;;;13.50;7.22;;;;;;;5.63;100.00;100350.06;5136915;27;20084;-57
2023/04/10 03:07:53;;;;;;;13.85;6.07;;;;;;;5.66;100.00;100349.47;5140464;28;20051;-62
2023/04/10 03:10:19;;;;;;;14.40;6.57;;;;;;;5.62;100.00;100351.19;5140663;28;20047;-59
2023/04/10 03:12:45;;;;;;;8.40;5.90;;;;;;;5.65;100.00;100345.94;5140383;27;20369;-61
2023/04/10 03:15:11;;;;;;;11.98;6.32;;;;;;;5.60;100.00;100348.00;5140664;28;20089;-57
2023/04/10 03:17:37;;;;;;;12.38;6.43;;;;;;;5.57;100.00;100354.84;5140206;27;20062;-62
2023/04/10 03:20:03;;;;;;;11.20;7.07;;;;;;;5.55;100.00;100348.88;5140413;27;20138;-59
2023/04/10 03:22:31;;;;;;;10.05;6.85;;;;;;;5.57;100.00;100352.13;5140271;28;20057;-62
2023/04/10 03:24:56;;;;;;;10.50;6.53;;;;;;;5.49;100.00;100344.63;5140447;28;20289;-55
2023/04/10 03:27:23;;;;;;;9.57;6.32;;;;;;;5.55;100.00;100346.16;5140133;28;20058;-57
2023/04/10 03:29:49;;;;;;;15.85;6.93;;;;;;;5.63;100.00;100350.06;5140437;27;20065;-57
2023/04/10 03:32:15;;;;;;;10.60;6.10;;;;;;;5.56;100.00;100352.41;5139837;27;20083;-56
2023/04/10 03:34:41;;;;;;;11.60;6.43;;;;;;;5.70;100.00;100355.94;5139844;28;20380;-59
2023/04/10 03:37:07;;;;;;;11.30;6.78;;;;;;;5.66;100.00;100350.31;5140201;28;20055;-59
2023/04/10 03:39:33;;;;;;;10.02;6.28;;;;;;;5.68;100.00;100347.28;5140092;28;20191;-62
2023/04/10 03:41:58;;;;;;;13.93;7.32;;;;;;;5.72;100.00;100348.25;5140213;28;20454;-61
2023/04/10 03:44:26;;;;;;;11.35;6.43;;;;;;;5.71;100.00;100341.22;5139929;28;20112;-61
2023/04/10 03:46:52;;;;;;;11.10;6.30;;;;;;;5.74;100.00;100347.97;5140132;27;20048;-61
2023/04/10 03:49:17;;;;;;;19.73;7.43;;;;;;;5.84;100.00;100345.03;5139700;27;20541;-60
2023/04/10 03:51:43;;;;;;;9.98;5.72;;;;;;;5.95;100.00;100341.00;5140028;28;20141;-63
2023/04/10 03:54:09;;;;;;;9.35;6.25;;;;;;;5.99;100.00;100327.59;5139782;28;20043;-62
2023/04/10 03:56:35;;;;;;;10.30;5.57;;;;;;;6.08;100.00;100329.28;5139936;27;20051;-56
2023/04/10 03:59:01;;;;;;;8.60;6.50;;;;;;;6.16;100.00;100313.34;5139570;28;20143;-54
2023/04/10 04:01:28;;;;;;;13.25;7.15;;;;;;;6.33;100.00;100308.03;5139912;28;20085;-58
2023/04/10 04:03:54;;;;;;;14.02;6.05;;;;;;;6.74;100.00;100291.50;5139419;28;20050;-58
2023/04/10 04:06:20;;;;;;;12.75;6.15;;;;;;;7.11;100.00;100258.66;5139671;27;20057;-60
2023/04/10 04:08:46;;;;;;;12.82;6.07;;;;;;;7.27;100.00;100156.19;5139717;27;20051;-62
2023/04/10 04:11:11;;;;;;;17.75;6.10;;;;;;;7.67;100.00;100044.97;5139549;28;20066;-62
2023/04/10 04:13:37;;;;;;;16.08;5.43;;;;;;;8.10;100.00;99910.25;5139580;28;20315;-62
2023/04/10 04:16:04;;;;;;;11.15;6.15;;;;;;;8.25;100.00;99695.78;5139463;28;20503;-60
2023/04/10 04:18:31;;;;;;;11.52;6.72;;;;;;;8.75;100.00;99522.59;5139061;27;20054;-60
2023/04/10 04:20:57;;;;;;;13.80;6.93;;;;;;;9.10;100.00;99265.00;5139220;28;20395;-60
2023/04/10 04:23:22;;;;;;;18.92;6.35;;;;;;;9.59;100.00;99092.97;5139507;28;20138;-60
2023/04/10 04:25:51;;;;;;;10.82;5.68;;;;;;;9.84;100.00;99000.38;5139068;27;20138;-56
2023/04/10 04:28:17;;;;;;;22.35;6.25;;;;;;;10.18;100.00;98943.03;5139460;28;20297;-61
2023/04/10 04:30:43;;;;;;;18.40;6.30;;;;;;;10.39;100.00;98923.41;5138885;28;20066;-62
2023/04/10 04:33:09;;;;;;;14.95;6.65;;;;;;;10.63;100.00;98919.47;5139288;28;20079;-62
2023/04/10 04:35:35;;;;;;;15.13;5.93;;;;;;;11.04;100.00;98931.34;5139226;28;20062;-63
2023/04/10 04:38:01;;;;;;;14.30;5.82;;;;;;;11.43;100.00;98957.66;5139147;28;20081;-64
2023/04/10 04:40:27;;;;;;;16.40;5.65;;;;;;;11.36;100.00;99001.47;5139006;28;20412;-63
2023/04/10 04:42:53;;;;;;;16.17;6.68;;;;;;;11.55;100.00;99013.09;5138912;27;20065;-62
2023/04/10 04:45:20;;;;;;;15.98;6.55;;;;;;;11.83;100.00;99043.97;5139016;28;20079;-60
2023/04/10 04:47:46;;;;;;;12.77;6.45;;;;;;;12.18;100.00;99098.56;5138635;28;20054;-63
2023/04/10 04:50:12;;;;;;;22.85;8.95;;;;;;;12.55;100.00;99134.25;5138990;28;20138;-63
2023/04/10 04:52:39;;;;;;;14.73;8.00;;;;;;;12.81;100.00;99160.03;5138629;27;20047;-62
2023/04/10 04:55:06;;;;;;;14.68;7.13;;;;;;;12.90;100.00;99182.53;5138514;28;20115;-63
2023/04/10 04:57:31;;;;;;;19.48;7.57;;;;;;;13.23;100.00;99213.84;5138488;28;20146;-59
2023/04/10 04:59:57;;;;;;;13.32;7.40;;;;;;;13.36;100.00;99253.69;5138900;28;20043;-58
2023/04/10 05:02:23;;;;;;;13.65;7.35;;;;;;;13.75;100.00;99270.53;5138601;27;20103;-62
2023/04/10 05:04:49;;;;;;;27.30;7.72;;;;;;;13.94;100.00;99297.03;5138498;28;20058;-60
2023/04/10 05:07:15;;;;;;;16.27;8.05;;;;;;;14.01;100.00;99341.16;5138445;28;20137;-56
2023/04/10 05:09:42;;;;;;;14.07;7.28;;;;;;;14.51;100.00;99371.84;5138455;28;20047;-53
2023/04/10 05:12:08;;;;;;;17.50;7.88;;;;;;;14.35;100.00;99380.38;5138534;28;20051;-56
2023/04/10 05:14:34;;;;;;;18.42;6.50;;;;;;;14.51;100.00;99391.16;5138182;28;20074;-52
2023/04/10 05:17:00;;;;;;;12.65;6.88;;;;;;;14.80;100.00;99427.19;5138418;28;20420;-52
2023/04/10 05:19:26;;;;;;;11.48;7.05;;;;;;;15.10;100.00;99448.22;5138197;28;20138;-55
2023/04/10 05:21:51;;;;;;;15.30;7.05;;;;;;;15.64;100.00;99482.31;5138544;28;20094;-55
2023/04/10 05:24:17;;;;;;;14.60;6.65;;;;;;;15.53;100.00;99498.88;5138041;27;20079;-59
2023/04/10 05:26:44;;;;;;;9.32;6.97;;;;;;;15.93;100.00;99521.91;5138374;27;20079;-58
2023/04/10 05:29:10;;;;;;;14.25;6.45;;;;;;;16.29;100.00;99514.41;5136975;27;20047;-54
2023/04/10 05:31:36;;;;;;;10.95;6.10;;;;;;;16.46;100.00;99527.50;5138395;27;20380;-54
2023/04/10 05:34:02;;;;;;;19.08;6.70;;;;;;;16.56;100.00;99556.34;5137789;27;20108;-56
2023/04/10 05:36:28;;;;;;;17.73;7.28;;;;;;;16.87;100.00;99557.53;5137861;28;20382;-58
2023/04/10 05:38:54;;;;;;;16.85;6.53;;;;;;;17.45;100.00;99577.56;5138108;28;20358;-59
2023/04/10 05:41:20;;;;;;;11.10;6.82;;;;;;;17.87;100.00;99596.06;5137701;28;20059;-58
2023/04/10 05:43:47;;;;;;;17.90;7.35;;;;;;;18.04;100.00;99597.16;5137990;28;20320;-59
2023/04/10 05:46:13;;;;;;;13.10;6.93;;;;;;;18.13;100.00;99607.81;5137604;28;20411;-56
2023/04/10 05:48:39;;;;;;;16.60;6.95;;;;;;;18.18;100.00;99610.16;5137797;28;20138;-59
2023/04/10 05:51:05;;;;;;;14.50;6.68;;;;;;;18.75;100.00;99617.31;5137383;28;20057;-59
2023/04/10 05:53:31;;;;;;;14.45;5.70;;;;;;;19.03;100.00;99613.53;5137971;28;20084;-60
2023/04/10 05:55:58;;;;;;;16.52;7.38;;;;;;;18.95;98.36;99625.88;5137664;28;20047;-61
2023/04/10 05:58:24;;;;;;;19.90;9.40;;;;;;;19.55;94.77;99632.81;5137792;28;20301;-60
2023/04/10 06:00:51;;;;;;;20.20;6.70;;;;;;;19.38;92.56;99629.03;5137097;28;20062;-58
2023/04/10 06:03:17;;;;;;;12.10;7.57;;;;;;;19.45;96.19;99631.72;5137511;28;20074;-58
2023/04/10 06:05:43;;;;;;;15.18;8.73;;;;;;;19.69;91.61;99638.28;5137318;27;20057;-60
2023/04/10 06:08:09;;;;;;;10.65;5.97;;;;;;;19.28;90.65;99633.50;5137379;27;20047;-59
2023/04/10 06:10:36;;;;;;;14.10;6.00;;;;;;;19.77;87.69;99647.31;5137209;28;20042;-63
2023/04/10 06:13:01;;;;;;;13.57;6.15;;;;;;;20.16;86.64;99644.03;5137182;28;20161;-59
2023/04/10 06:15:28;;;;;;;19.42;8.50;;;;;;;20.22;84.82;99644.34;5137339;28;20333;-59
2023/04/10 06:17:55;;;;;;;15.45;7.03;;;;;;;20.22;84.87;99649.91;5137157;28;20050;-58
2023/04/10 06:20:21;;;;;;;14.93;6.80;;;;;;;20.31;85.11;99650.19;5137250;28;20423;-55
2023/04/10 06:22:47;;;;;;;14.65;6.88;;;;;;;20.44;83.08;99656.75;5136928;28;20051;-62
2023/04/10 06:25:13;;;;;;;15.80;8.13;;;;;;;20.11;87.82;99638.94;5137171;28;20085;-55
2023/04/10 06:27:39;;;;;;;13.45;7.05;;;;;;;;;;5136805;28;20081;-60
2023/04/10 06:30:07;;;;;;;12.40;6.40;;;;;;;20.82;80.42;99658.59;5137161;28;20112;-61
2023/04/10 06:32:33;;;;;;;12.38;7.13;;;;;;;20.85;77.07;99664.13;5136750;28;20093;-61
2023/04/10 06:34:59;;;;;;;10.45;6.82;;;;;;;21.23;76.94;99663.13;5136694;28;20051;-60
2023/04/10 06:37:28;;;;;;;16.20;7.00;;;;;;;21.60;72.40;99670.44;5136780;28;20043;-61
2023/04/10 06:40:01;;;;;;;18.02;7.55;;;;;;;21.39;71.86;99674.41;5137212;27;20062;-54
2023/04/10 06:42:27;;;;;;;14.98;6.13;;;;;;;21.69;70.70;99672.66;5140650;28;20396;-60
2023/04/10 06:44:53;;;;;;;16.95;6.25;;;;;;;22.02;69.90;99679.94;5140382;28;20066;-61
2023/04/10 06:47:18;;;;;;;10.82;6.05;;;;;;;21.82;67.74;99679.94;5140817;27;20130;-57
2023/04/10 06:49:45;;;;;;;22.70;6.22;;;;;;;22.14;67.19;99686.91;5140366;28;20341;-57
2023/04/10 06:52:11;;;;;;;18.13;7.05;;;;;;;22.19;68.22;99685.63;5140610;28;20047;-57
2023/04/10 06:54:37;;;;;;;20.30;7.30;;;;;;;22.40;65.78;99695.56;5140275;28;20051;-57
2023/04/10 06:57:03;;;;;;;9.98;6.60;;;;;;;21.93;68.50;99684.56;5140728;27;20138;-56
2023/04/10 06:59:30;;;;;;;16.10;6.55;;;;;;;22.67;65.76;99698.16;5140144;28;20050;-60
2023/04/10 07:01:56;;;;;;;13.68;6.00;;;;;;;21.73;66.52;99690.13;5140218;28;20371;-54
2023/04/10 07:04:22;;;;;;;15.68;6.05;;;;;;;22.43;64.33;99695.50;5140118;28;20043;-55
2023/04/10 07:06:48;;;;;;;13.57;6.05;;;;;;;21.45;63.33;99692.22;5140367;28;20078;-55
2023/04/10 07:09:14;;;;;;;13.45;6.63;;;;;;;21.25;62.52;99696.94;5140420;28;20328;-55
2023/04/10 07:11:40;;;;;;;21.60;6.47;;;;;;;21.45;62.96;99691.44;5140051;28;20139;-56
2023/04/10 07:14:06;;;;;;;12.60;6.57;;;;;;;21.75;66.37;99694.03;5139829;28;20429;-58
2023/04/10 07:16:32;;;;;;;10.63;6.55;;;;;;;22.75;61.06;99694.75;5139720;28;20146;-55
2023/04/10 07:18:58;;;;;;;11.23;5.93;;;;;;;22.50;55.78;99709.28;5140125;28;20047;-59
2023/04/10 07:21:25;;;;;;;16.45;8.15;;;;;;;22.60;56.17;99704.69;5139765;28;20071;-61
2023/04/10 07:23:52;;;;;;;6.53;5.45;;;;;;;20.64;58.69;99698.69;5140460;28;20047;-61
2023/04/10 07:26:18;;;;;;;18.60;6.38;;;;;;;22.07;60.07;99692.63;5139906;27;20054;-54
2023/04/10 07:28:44;;;;;;;10.32;5.75;;;;;;;22.07;55.52;99696.22;5140134;28;20066;-52
2023/04/10 07:31:11;;;;;;;13.93;5.88;;;;;;;22.57;57.11;99701.97;5140281;28;20157;-56
2023/04/10 07:33:37;;;;;;;8.73;5.88;;;;;;;23.39;54.06;99702.81;5139838;28;20082;-53
2023/04/10 07:36:04;;;;;;;14.60;6.63;;;;;;;23.49;53.13;99702.53;5139912;27;20106;-55
2023/04/10 07:38:30;;;;;;;8.70;6.20;;;;;;;22.85;53.72;99701.31;5139712;28;20043;-63
2023/04/10 07:40:57;;;;;;;14.52;8.30;;;;;;;23.63;53.66;99700.59;5139826;28;20428;-61
2023/04/10 07:43:24;;;;;;;13.05;6.75;;;;;;;22.99;54.38;99692.63;5139530;27;20142;-61
2023/04/10 07:45:51;;;;;;;15.35;6.72;;;;;;;22.57;54.35;99699.19;5139910;28;20377;-58
2023/04/10 07:48:17;;;;;;;10.35;6.50;;;;;;;22.91;54.37;99693.19;5139432;28;20130;-54
2023/04/10 07:50:43;;;;;;;10.02;5.72;;;;;;;22.68;54.70;99688.53;5139910;28;20047;-59
2023/04/10 07:53:09;;;;;;;11.23;7.30;;;;;;;23.24;52.79;99697.59;5138300;27;20081;-60
2023/04/10 07:55:37;;;;;;;11.18;5.88;;;;;;;23.90;52.39;99691.88;5139767;27;20082;-56
2023/04/10 07:58:03;;;;;;;20.40;7.43;;;;;;;23.49;54.08;99691.34;5139618;28;20042;-55
2023/04/10 08:00:30;;;;;;;12.65;6.38;;;;;;;24.15;54.14;99693.94;5139545;28;20397;-57
2023/04/10 08:02:56;;;;;;;16.23;8.70;;;;;;;23.80;54.28;99699.34;5139633;28;20138;-56
2023/04/10 08:05:21;;;;;;;10.45;7.03;;;;;;;24.16;53.54;99696.31;5139088;28;20096;-61
2023/04/10 08:07:47;;;;;;;8.25;5.55;;;;;;;22.73;51.43;99696.41;5139349;28;20049;-62
2023/04/10 08:10:13;;;;;;;8.25;5.72;;;;;;;24.03;51.11;99698.31;5139248;27;20134;-60
2023/04/10 08:12:39;;;;;;;10.93;7.70;;;;;;;24.01;51.89;99694.38;5139271;28;20059;-55
2023/04/10 08:15:06;;;;;;;11.52;5.13;;;;;;;23.25;50.66;99701.94;5139447;28;20047;-54
2023/04/10 08:17:33;;;;;;;14.00;6.28;;;;;;;23.84;50.58;99693.66;5139550;28;20146;-60
2023/04/10 08:19:59;;;;;;;13.50;7.43;;;;;;;22.56;52.09;99698.41;5138936;28;20521;-61
2023/04/10 08:22:25;;;;;;;10.32;6.82;;;;;;;21.77;52.80;99697.22;5139461;28;20146;-59
2023/04/10 08:24:51;;;;;;;8.40;5.53;;;;;;;23.31;53.28;99690.25;5138844;28;20047;-61
2023/04/10 08:27:17;;;;;;;15.00;7.25;;;;;;;22.96;53.04;99687.91;5138801;28;20130;-60
2023/04/10 08:29:42;;;;;;;13.23;6.70;;;;;;;23.58;54.20;99687.13;5139260;28;20408;-57
2023/04/10 08:32:08;;;;;;;11.82;8.35;;;;;;;23.76;53.44;99679.06;5138763;28;20051;-57
2023/04/10 08:34:35;;;;;;;10.68;8.20;;;;;;;23.60;51.61;99676.28;5138708;28;20353;-53
2023/04/10 08:37:04;;;;;;;10.90;8.63;;;;;;;23.33;52.28;99674.59;5138369;28;20137;-53
2023/04/10 08:39:30;;;;;;;10.65;6.15;;;;;;;23.48;52.16;99675.00;5138401;27;20047;-56
2023/04/10 08:41:56;;;;;;;12.68;6.07;;;;;;;24.58;50.94;99670.28;5138620;28;20141;-60
2023/04/10 08:44:22;;;;;;;19.88;6.75;;;;;;;22.68;53.54;99668.97;5139208;28;20051;-60
2023/04/10 08:46:50;;;;;;;11.80;6.43;;;;;;;22.93;52.86;99663.63;5138522;28;20055;-59
2023/04/10 08:49:23;;;;;;;10.18;7.22;;;;;;;23.66;52.32;99668.94;5138890;28;20054;-57
2023/04/10 08:51:55;;;;;;;11.02;5.97;;;;;;;23.82;51.81;99670.88;5138268;27;20062;-60
2023/04/10 08:54:25;;;;;;;15.65;4.85;;;;;;;23.48;51.91;99675.78;5138697;28;20130;-58
2023/04/10 08:56:54;;;;;;;16.25;6.10;;;;;;;23.19;52.02;99670.16;5138668;27;20432;-57
2023/04/10 08:59:20;;;;;;;17.67;7.75;;;;;;;23.76;52.03;99667.88;5138454;27;20051;-55
2023/04/10 09:01:46;;;;;;;12.65;8.27;;;;;;;24.23;51.10;99664.50;5138655;27;20061;-58
2023/04/10 09:04:13;;;;;;;8.65;5.80;;;;;;;24.09;51.31;99668.53;5138284;27;20058;-53
2023/04/10 09:06:39;;;;;;;17.67;6.07;;;;;;;23.28;54.80;99657.53;5138499;28;20047;-56
2023/04/10 09:09:06;;;;;;;22.80;6.50;;;;;;;23.18;53.50;99662.19;5138233;28;20051;-61
2023/04/10 09:12:02;;;;;;;9.05;6.05;;;;;;;22.87;52.93;99665.31;5138185;28;20217;-59
2023/04/10 09:14:30;;;;;;;12.52;7.53;;;;;;;23.32;50.99;99661.03;5138147;28;20043;-57
2023/04/10 09:17:14;;;;;;;11.90;6.65;;;;;;;23.53;51.99;99651.28;5137837;28;20044;-59
2023/04/10 09:19:40;;;;;;;;;;;;;;;23.71;50.20;99662.81;5138628;28;20067;-56
2023/04/10 09:22:06;;;;;;;19.25;7.45;;;;;;;23.62;50.83;99657.81;5137916;27;20241;-53
2023/04/10 09:24:36;;;;;;;13.15;6.88;;;;;;;23.11;51.91;99653.97;5138200;28;20135;-59
2023/04/10 09:27:02;;;;;;;11.77;6.38;;;;;;;22.64;52.36;99648.72;5137828;28;20280;-59
2023/04/10 09:29:38;;;;;;;15.48;5.93;;;;;;;22.76;55.23;99640.44;5138040;28;20043;-59
2023/04/10 09:32:04;;;;;;;11.15;7.70;;;;;;;23.11;53.39;99643.59;5137669;28;20107;-57
2023/04/10 09:34:30;;;;;;;13.70;5.78;;;;;;;23.21;52.73;99648.09;5138383;27;20141;-59
2023/04/10 09:36:58;;;;;;;10.68;5.60;;;;;;;22.75;53.05;99649.25;5137439;28;20051;-59
2023/04/10 09:39:34;;;;;;;9.50;6.22;;;;;;;22.21;52.02;99649.69;5137464;28;20061;-60
2023/04/10 09:42:01;;;;;;;9.77;6.10;;;;;;;20.73;53.74;99648.03;5137509;28;20051;-55
2023/04/10 09:44:31;;;;;;;9.75;5.63;;;;;;;22.07;55.50;99645.97;5137448;28;20061;-58
2023/04/10 09:46:57;;;;;;;7.60;5.35;;;;;;;22.45;54.68;99648.34;5137959;28;20134;-58
2023/04/10 09:49:23;;;;;;;11.13;6.25;;;;;;;22.92;53.42;99650.81;5137594;28;20058;-59
2023/04/10 09:51:49;;;;;;;7.55;5.75;;;;;;;22.54;51.53;99647.75;5137687;28;20142;-58
2023/04/10 09:54:15;;;;;;;14.73;6.47;;;;;;;23.39;52.03;99639.25;5137594;28;20062;-56
2023/04/10 09:56:41;;;;;;;15.13;6.10;;;;;;;21.51;53.43;99643.09;5137781;27;20115;-55
2023/04/10 09:59:09;;;;;;;11.85;7.65;;;;;;;21.11;54.76;99640.19;5137481;28;20047;-55
2023/04/10 10:01:38;;;;;;;8.75;6.00;;;;;;;20.83;55.53;99641.47;5137781;28;20320;-59
2023/04/10 10:04:04;;;;;;;11.60;5.90;;;;;;;20.47;59.16;99635.66;5137159;27;20545;-58
2023/04/10 10:06:31;;;;;;;14.13;7.50;;;;;;;19.90;59.25;99637.22;5136891;27;20138;-57
2023/04/10 10:09:03;;;;;;;11.82;6.43;;;;;;;20.16;58.65;99634.91;5137248;27;20150;-53
2023/04/10 10:11:32;;;;;;;17.83;7.30;;;;;;;20.24;57.88;99630.03;5136960;28;20105;-54
2023/04/10 10:14:01;;;;;;;10.90;6.97;;;;;;;20.02;57.37;99637.84;5137148;28;20082;-55
2023/04/10 10:16:33;;;;;;;12.13;6.03;;;;;;;20.44;58.44;99630.91;5136626;28;20091;-57
2023/04/10 10:19:05;;;;;;;12.35;5.57;;;;;;;20.16;59.44;99626.56;5137513;28;20047;-58
2023/04/10 10:21:33;;;;;;;10.85;8.18;;;;;;;19.73;59.58;99635.44;5136924;27;20142;-59
2023/04/10 10:24:00;;;;;;;12.45;6.32;;;;;;;19.64;59.38;99624.81;5137425;28;20050;-56
2023/04/10 10:26:28;;;;;;;9.23;6.30;;;;;;;19.19;60.04;99626.84;5136957;28;20058;-58
2023/04/10 10:28:55;;;;;;;11.43;6.22;;;;;;;19.58;60.81;99617.31;5136613;28;20063;-58
2023/04/10 10:31:22;;;;;;;11.13;8.52;;;;;;;19.52;60.63;99617.75;5136928;28;20337;-59
2023/04/10 10:33:51;;;;;;;11.55;6.32;;;;;;;18.75;62.59;99625.66;5136878;28;20054;-57
2023/04/10 10:36:19;;;;;;;10.95;6.60;;;;;;;18.77;62.98;99617.72;5136598;28;20103;-63
2023/04/10 10:38:57;;;;;;;10.35;6.60;;;;;;;18.56;63.09;99613.88;5136425;28;20062;-53
2023/04/10 10:41:30;;;;;;;12.85;7.40;;;;;;;18.59;62.91;99615.03;5136632;27;20055;-56
2023/04/10 10:44:10;;;;;;;12.77;6.63;;;;;;;18.40;64.40;99618.34;5136665;28;20051;-59
2023/04/10 10:46:42;;;;;;;10.80;6.47;;;;;;;18.62;62.87;99616.97;5137096;27;20043;-53
2023/04/10 10:49:09;;;;;;;7.60;5.55;;;;;;;17.98;64.08;99618.19;5136909;28;20070;-60
2023/04/10 10:51:46;;;;;;;9.35;6.63;;;;;;;18.38;62.79;99610.41;5136505;27;20143;-57
2023/04/10 10:54:29;;;;;;;10.05;7.10;;;;;;;18.61;62.66;99611.84;5136725;28;20203;-55
2023/04/10 10:56:55;;;;;;;8.20;5.07;;;;;;;19.20;60.30;99611.75;5136415;28;20417;-61
2023/04/10 10:59:55;;;;;;;9.82;5.25;;;;;;;19.70;58.15;99612.03;5136949;28;20191;-60
2023/04/10 11:02:22;;;;;;;7.15;5.30;;;;;;;19.41;58.18;99608.75;5136134;28;20145;-56
2023/04/10 11:04:49;;;;;;;9.23;5.88;;;;;;;20.07;57.46;99599.22;5136111;28;20431;-56
2023/04/10 11:07:16;;;;;;;12.23;6.80;;;;;;;19.77;56.69;99602.03;5136346;27;20146;-60
2023/04/10 11:09:49;;;;;;;9.77;5.28;;;;;;;19.80;56.81;99604.75;5136463;27;20073;-62
2023/04/10 11:12:15;;;;;;;12.27;5.40;;;;;;;19.73;58.08;99602.84;5136877;27;20051;-57
2023/04/10 11:14:42;;;;;;;16.27;5.70;;;;;;;19.03;60.20;99594.84;5136225;28;20292;-57
2023/04/10 11:17:09;;;;;;;9.48;5.60;;;;;;;18.62;61.17;99596.75;5136544;27;20051;-56
2023/04/10 11:19:58;;;;;;;10.85;5.68;;;;;;;18.15;62.60;99594.31;5136012;27;20047;-54
2023/04/10 11:22:24;;;;;;;11.15;6.10;;;;;;;17.85;64.56;99592.09;5136444;27;20063;-57
2023/04/10 11:24:58;;;;;;;13.38;6.10;;;;;;;17.36;65.21;99585.50;5135904;27;20145;-58
2023/04/10 11:27:38;;;;;;;11.38;6.13;;;;;;;17.49;64.70;99591.41;5137568;27;20051;-58